Terminal Aerodrome Forecast
Issued by NWS

Home | Current Version | Previous Version | Text Only | Print | Product List | Glossary On
Versions: 1 2 3 4 5 6 7 8 9 10 11 12 13 14 15 16 17 18 19 20 21 22 23 24 25 26 27 28 29
000
FTAK31 PAFA 301720
TAFABT
TAF
PABT 301720Z 3018/3118 00000KT 1/2SM FG BKN003 BKN030 OVC070
     FM302000 33003KT P6SM VCSH BKN050 OVC070
     FM310000 32004KT P6SM SCT040 BKN080
     FM310900 36003KT P6SM SCT050 BKN100=

USA.gov is the U.S. government's official web portal to all federal, state and local government web resources and services.